Time;durP1;ratioP1;P1;durP2;ratioP2;P2;SDS_P1;SDS_P2;PMS_P1;PMS_P2;Temp;Humidity;BMP_temperature;BMP_pressure;BME280_temperature;BME280_humidity;BME280_pressure;Samples;Min_cycle;Max_cycle;Signal;HPM_P1;HPM_P2
2021/04/20 00:00:54;;;;;;;0.60;0.60;;;3.60;99.90;;;;;;5111589;28;20283;-84
2021/04/20 00:03:20;;;;;;;0.50;0.50;;;3.50;99.90;;;;;;5111320;28;20202;-84
2021/04/20 00:05:46;;;;;;;0.50;0.50;;;3.50;99.90;;;;;;5111440;28;20202;-84
2021/04/20 00:08:12;;;;;;;0.60;0.60;;;3.40;99.90;;;;;;5111184;28;20218;-84
2021/04/20 00:10:39;;;;;;;0.50;0.50;;;3.30;99.90;;;;;;5111359;28;20210;-84
2021/04/20 00:13:06;;;;;;;0.60;0.60;;;3.30;99.90;;;;;;5110895;28;20256;-84
2021/04/20 00:15:33;;;;;;;0.60;0.60;;;3.30;99.90;;;;;;5111375;28;20205;-84
2021/04/20 00:18:01;;;;;;;0.60;0.60;;;3.30;99.90;;;;;;5111141;28;20258;-84
2021/04/20 00:20:28;;;;;;;0.50;0.50;;;3.30;99.90;;;;;;5111350;28;20243;-84
2021/04/20 00:22:54;;;;;;;0.60;0.60;;;3.30;99.90;;;;;;5110803;28;20279;-84
2021/04/20 00:25:20;;;;;;;0.50;0.50;;;3.30;99.90;;;;;;5110989;28;20206;-83
2021/04/20 00:27:48;;;;;;;0.60;0.60;;;3.30;99.90;;;;;;5111069;28;20214;-83
2021/04/20 00:30:15;;;;;;;0.60;0.60;;;3.30;99.90;;;;;;5110789;28;20198;-83
2021/04/20 00:32:42;;;;;;;0.60;0.60;;;3.20;99.90;;;;;;5110895;28;20198;-84
2021/04/20 00:35:10;;;;;;;0.60;0.60;;;3.20;99.90;;;;;;5110804;28;20206;-83
2021/04/20 00:37:36;;;;;;;0.60;0.60;;;3.10;99.90;;;;;;5110889;28;20209;-83
2021/04/20 00:40:03;;;;;;;0.60;0.60;;;3.10;99.90;;;;;;5110438;28;20198;-83
2021/04/20 00:42:29;;;;;;;0.50;0.50;;;3.00;99.90;;;;;;5111001;28;20580;-83
2021/04/20 00:44:58;;;;;;;0.60;0.60;;;2.90;99.90;;;;;;5110608;28;20206;-83
2021/04/20 00:47:27;;;;;;;0.50;0.50;;;2.90;99.90;;;;;;5110705;28;20226;-83
2021/04/20 00:49:53;;;;;;;0.60;0.60;;;2.80;99.90;;;;;;5110255;28;20601;-83
2021/04/20 00:52:19;;;;;;;0.60;0.60;;;2.70;99.90;;;;;;5110793;28;20198;-83
2021/04/20 00:54:45;;;;;;;0.60;0.60;;;2.60;99.90;;;;;;5110110;28;20202;-83
2021/04/20 00:57:11;;;;;;;0.60;0.60;;;2.60;99.90;;;;;;5110606;28;20209;-83
2021/04/20 00:59:37;;;;;;;0.50;0.50;;;2.50;99.90;;;;;;5110232;28;20221;-83
2021/04/20 01:02:04;;;;;;;0.60;0.60;;;2.50;99.90;;;;;;5110608;28;20198;-85
2021/04/20 01:04:31;;;;;;;0.60;0.60;;;2.50;99.90;;;;;;5110285;28;20209;-84
2021/04/20 01:06:57;;;;;;;0.50;0.50;;;2.50;99.90;;;;;;5110396;28;20210;-85
2021/04/20 01:09:26;;;;;;;0.60;0.60;;;2.50;99.90;;;;;;5110185;28;20270;-85
2021/04/20 01:11:52;;;;;;;0.60;0.60;;;3.50;99.90;;;;;;5110385;28;20660;-85
2021/04/20 01:14:20;;;;;;;0.60;0.60;;;2.40;99.90;;;;;;5109991;28;20202;-85
2021/04/20 01:16:46;;;;;;;0.50;0.50;;;2.40;99.90;;;;;;5109826;28;20206;-85
2021/04/20 01:19:15;;;;;;;0.60;0.60;;;2.40;99.90;;;;;;5110271;28;20482;-85
2021/04/20 01:21:43;;;;;;;0.60;0.60;;;2.40;99.90;;;;;;5110340;28;20660;-85
2021/04/20 01:24:26;;;;;;;0.57;0.57;;;2.40;99.90;;;;;;5109797;28;20206;-85
2021/04/20 01:26:54;;;;;;;0.60;0.60;;;2.40;99.90;;;;;;5109886;28;20226;-85
2021/04/20 01:29:21;;;;;;;0.50;0.50;;;2.40;99.90;;;;;;5109624;28;20574;-85
2021/04/20 01:31:47;;;;;;;0.60;0.60;;;2.30;99.90;;;;;;5109980;28;20202;-85
2021/04/20 01:34:14;;;;;;;0.60;0.60;;;2.30;99.90;;;;;;5109722;28;20198;-85
2021/04/20 01:36:41;;;;;;;0.60;0.60;;;2.20;99.90;;;;;;5110140;28;20229;-85
2021/04/20 01:39:10;;;;;;;0.60;0.60;;;2.20;99.90;;;;;;5109522;28;20411;-85
2021/04/20 01:41:38;;;;;;;0.60;0.60;;;2.10;99.90;;;;;;5110007;28;20198;-85
2021/04/20 01:44:05;;;;;;;0.60;0.60;;;2.20;99.90;;;;;;5109622;28;20202;-85
2021/04/20 01:46:32;;;;;;;0.60;0.60;;;2.20;99.90;;;;;;5109732;28;20570;-85
2021/04/20 01:48:58;;;;;;;0.60;0.60;;;2.20;99.90;;;;;;5109650;28;20226;-85
2021/04/20 01:51:26;;;;;;;0.60;0.60;;;2.20;99.90;;;;;;5109659;28;20667;-84
2021/04/20 01:53:52;;;;;;;0.60;0.60;;;2.30;99.90;;;;;;5109712;28;20201;-84
2021/04/20 01:56:19;;;;;;;0.60;0.60;;;2.30;99.90;;;;;;5109569;28;20660;-84
2021/04/20 01:58:48;;;;;;;0.60;0.60;;;2.30;99.90;;;;;;5109748;28;20199;-84
2021/04/20 02:01:16;;;;;;;0.60;0.60;;;2.20;99.90;;;;;;5109462;28;20203;-84
2021/04/20 02:03:44;;;;;;;0.60;0.60;;;2.10;99.90;;;;;;5109585;28;20209;-83
2021/04/20 02:06:12;;;;;;;0.60;0.60;;;2.00;99.90;;;;;;5109343;28;20198;-84
2021/04/20 02:08:42;;;;;;;0.50;0.50;;;1.90;99.90;;;;;;5109565;28;20233;-84
2021/04/20 02:11:12;;;;;;;0.60;0.60;;;1.90;99.90;;;;;;5109414;28;20202;-84
2021/04/20 02:13:39;;;;;;;0.50;0.50;;;1.90;99.90;;;;;;5109221;28;20254;-84
2021/04/20 02:16:08;;;;;;;0.60;0.60;;;1.90;99.90;;;;;;5109711;28;20210;-84
2021/04/20 02:18:36;;;;;;;0.60;0.60;;;1.90;99.90;;;;;;5109376;28;20198;-84
2021/04/20 02:21:03;;;;;;;0.60;0.60;;;1.90;99.90;;;;;;5109328;28;20209;-84
2021/04/20 02:23:29;;;;;;;0.60;0.60;;;1.90;99.90;;;;;;5109567;28;20206;-84
2021/04/20 02:26:01;;;;;;;0.60;0.60;;;1.90;99.90;;;;;;5109273;28;20222;-84
2021/04/20 02:28:31;;;;;;;0.60;0.60;;;1.90;99.90;;;;;;5109286;28;20222;-84
2021/04/20 02:31:00;;;;;;;0.60;0.60;;;1.90;99.90;;;;;;5112325;28;20255;-84
2021/04/20 02:33:27;;;;;;;0.60;0.60;;;1.90;99.90;;;;;;5113147;28;20313;-84
2021/04/20 02:35:56;;;;;;;0.60;0.60;;;1.90;99.90;;;;;;5113303;28;20217;-84
2021/04/20 02:38:22;;;;;;;0.60;0.60;;;1.80;99.90;;;;;;5112937;28;20198;-84
2021/04/20 02:40:53;;;;;;;0.60;0.60;;;1.80;99.90;;;;;;5113040;28;20657;-84
2021/04/20 02:43:19;;;;;;;0.50;0.50;;;1.70;99.90;;;;;;5113083;28;20570;-85
2021/04/20 02:45:48;;;;;;;0.60;0.60;;;1.70;99.90;;;;;;5113153;28;20198;-84
2021/04/20 02:48:14;;;;;;;0.60;0.60;;;1.60;99.90;;;;;;5112782;28;20233;-83
2021/04/20 02:50:43;;;;;;;0.50;0.50;;;1.60;99.90;;;;;;5113134;28;20567;-82
2021/04/20 02:53:09;;;;;;;0.60;0.60;;;1.50;99.90;;;;;;5112822;28;20672;-82
2021/04/20 02:55:35;;;;;;;0.60;0.60;;;1.60;99.90;;;;;;5112710;28;20251;-83
2021/04/20 02:58:04;;;;;;;0.60;0.60;;;1.60;99.90;;;;;;5112776;28;20198;-83
2021/04/20 03:00:33;;;;;;;0.60;0.60;;;1.60;99.90;;;;;;5112400;28;20499;-83
2021/04/20 03:03:01;;;;;;;0.52;0.52;;;1.60;99.90;;;;;;5112604;28;20626;-83
2021/04/20 03:05:29;;;;;;;0.60;0.60;;;1.50;99.90;;;;;;5112674;28;20266;-83
2021/04/20 03:07:56;;;;;;;0.60;0.60;;;1.50;99.90;;;;;;5112106;28;20206;-83
2021/04/20 03:10:24;;;;;;;0.60;0.60;;;1.40;99.90;;;;;;5112785;28;20202;-83
2021/04/20 03:12:51;;;;;;;0.50;0.50;;;1.40;99.90;;;;;;5112109;28;20909;-83
2021/04/20 03:15:18;;;;;;;0.60;0.60;;;1.40;99.90;;;;;;5112529;28;20211;-83
2021/04/20 03:17:46;;;;;;;0.60;0.60;;;1.40;99.90;;;;;;5112075;28;20860;-84
2021/04/20 03:20:12;;;;;;;0.60;0.60;;;1.30;99.90;;;;;;5112376;28;20618;-84
2021/04/20 03:22:41;;;;;;;0.60;0.60;;;1.30;99.90;;;;;;5112009;28;20668;-84
2021/04/20 03:25:23;;;;;;;0.60;0.60;;;1.30;99.90;;;;;;5112192;28;20207;-84
2021/04/20 03:27:52;;;;;;;0.60;0.60;;;1.10;99.90;;;;;;5111994;28;20573;-84
2021/04/20 03:30:22;;;;;;;0.50;0.50;;;1.10;99.90;;;;;;5112365;28;20198;-84
2021/04/20 03:32:55;;;;;;;0.60;0.60;;;1.10;99.90;;;;;;5112204;28;20210;-84
2021/04/20 03:35:27;;;;;;;0.60;0.60;;;1.20;99.90;;;;;;5112154;27;20202;-84
2021/04/20 03:38:00;;;;;;;0.60;0.60;;;1.20;99.90;;;;;;5111736;28;20205;-84
2021/04/20 03:40:30;;;;;;;0.60;0.60;;;1.20;99.90;;;;;;5111564;28;20252;-84
2021/04/20 03:43:01;;;;;;;0.60;0.60;;;1.20;99.90;;;;;;5112140;28;20280;-84
2021/04/20 03:45:32;;;;;;;0.60;0.60;;;1.30;99.90;;;;;;5112315;28;20289;-84
2021/04/20 03:48:09;;;;;;;0.50;0.50;;;1.60;99.90;;;;;;5111356;28;20234;-84
2021/04/20 03:50:38;;;;;;;0.60;0.60;;;1.80;99.90;;;;;;5111675;28;20326;-84
2021/04/20 03:53:09;;;;;;;0.60;0.60;;;2.00;99.90;;;;;;5111655;28;20209;-84
2021/04/20 03:55:37;;;;;;;0.60;0.60;;;1.90;99.90;;;;;;5111938;28;20626;-84
2021/04/20 03:58:05;;;;;;;0.50;0.50;;;1.90;99.90;;;;;;5111621;28;20251;-84
2021/04/20 04:00:33;;;;;;;0.60;0.60;;;1.80;99.90;;;;;;5111577;28;20218;-84
2021/04/20 04:03:02;;;;;;;0.52;0.52;;;1.80;99.90;;;;;;5111541;28;20275;-84
2021/04/20 04:05:31;;;;;;;0.50;0.50;;;1.70;99.90;;;;;;5111301;28;20509;-85
2021/04/20 04:08:00;;;;;;;0.60;0.60;;;1.60;99.90;;;;;;5111204;28;20252;-85
2021/04/20 04:10:30;;;;;;;0.60;0.60;;;1.50;99.90;;;;;;5111648;28;20206;-85
2021/04/20 04:13:02;;;;;;;0.60;0.60;;;1.40;99.90;;;;;;5115117;27;20200;-85
2021/04/20 04:15:29;;;;;;;0.50;0.50;;;1.40;99.90;;;;;;5131737;27;20206;-85
2021/04/20 04:17:57;;;;;;;0.50;0.50;;;1.30;99.90;;;;;;5131927;27;20293;-85
2021/04/20 04:20:24;;;;;;;0.50;0.50;;;1.30;99.90;;;;;;5131973;27;20224;-85
2021/04/20 04:22:55;;;;;;;0.60;0.60;;;1.30;99.90;;;;;;5131934;27;20254;-84
2021/04/20 04:25:25;;;;;;;0.50;0.50;;;1.20;99.90;;;;;;5131458;27;20258;-84
2021/04/20 04:27:57;;;;;;;0.60;0.60;;;1.10;99.90;;;;;;5131818;27;20283;-84
2021/04/20 04:30:27;;;;;;;0.60;0.60;;;1.10;99.90;;;;;;5131951;27;20198;-84
2021/04/20 04:32:54;;;;;;;0.60;0.60;;;1.10;99.90;;;;;;5131837;27;20216;-84
2021/04/20 04:35:22;;;;;;;0.60;0.60;;;1.20;99.90;;;;;;5131542;27;20840;-84
2021/04/20 04:37:49;;;;;;;0.60;0.60;;;1.20;99.90;;;;;;5131598;27;20209;-83
2021/04/20 04:40:18;;;;;;;0.60;0.60;;;1.20;99.90;;;;;;5131097;27;20201;-84
2021/04/20 04:42:44;;;;;;;0.60;0.60;;;1.20;99.90;;;;;;5131658;27;20209;-83
2021/04/20 04:45:12;;;;;;;0.60;0.60;;;1.30;99.90;;;;;;5131251;27;20202;-84
2021/04/20 04:47:40;;;;;;;0.57;0.57;;;1.30;99.90;;;;;;5130937;27;20237;-84
2021/04/20 04:50:09;;;;;;;0.60;0.60;;;1.20;99.90;;;;;;5131325;27;20221;-84
2021/04/20 04:52:36;;;;;;;0.60;0.60;;;1.20;99.90;;;;;;5130286;27;20201;-82
2021/04/20 04:55:04;;;;;;;0.60;0.60;;;1.30;99.90;;;;;;5131608;27;20206;-86
2021/04/20 04:57:31;;;;;;;0.60;0.60;;;1.40;99.90;;;;;;5131316;27;20205;-86
2021/04/20 05:00:00;;;;;;;0.60;0.60;;;1.50;99.90;;;;;;5131026;27;20220;-85
2021/04/20 05:02:27;;;;;;;0.60;0.60;;;2.10;99.90;;;;;;5131088;27;20208;-86
2021/04/20 05:04:55;;;;;;;0.50;0.50;;;1.70;99.90;;;;;;5124364;27;20189;-86
2021/04/20 05:07:22;;;;;;;0.60;0.60;;;1.90;99.90;;;;;;5109700;27;20653;-89
2021/04/20 05:09:49;;;;;;;0.60;0.60;;;2.40;99.90;;;;;;5116794;27;20209;-87
2021/04/20 05:12:20;;;;;;;0.50;0.50;;;3.50;99.90;;;;;;5119758;27;20251;-87
2021/04/20 05:14:46;;;;;;;0.60;0.60;;;4.50;99.90;;;;;;5111115;28;20290;-87
2021/04/20 05:17:13;;;;;;;0.60;0.60;;;5.30;99.90;;;;;;5110272;28;20757;-88
2021/04/20 05:19:41;;;;;;;0.60;0.60;;;6.00;99.90;;;;;;5110907;28;20289;-86
2021/04/20 05:22:09;;;;;;;0.60;0.60;;;6.60;99.90;;;;;;5111208;28;20251;-94
2021/04/20 05:24:36;;;;;;;0.60;0.60;;;7.20;99.90;;;;;;5111087;28;20209;-88
2021/04/20 05:27:02;;;;;;;0.60;0.60;;;7.60;99.90;;;;;;5108572;28;20218;-89
2021/04/20 05:29:28;;;;;;;0.60;0.60;;;8.20;99.90;;;;;;5110242;28;20583;-89
2021/04/20 05:31:55;;;;;;;0.60;0.60;;;8.20;99.90;;;;;;5110314;28;20222;-89
2021/04/20 05:34:22;;;;;;;0.60;0.60;;;8.70;99.90;;;;;;5110199;28;20206;-89
2021/04/20 05:36:49;;;;;;;0.60;0.60;;;8.80;99.90;;;;;;5110454;28;20203;-88
2021/04/20 05:39:17;;;;;;;0.60;0.60;;;8.90;99.90;;;;;;5110084;28;20668;-88
2021/04/20 05:41:44;;;;;;;0.60;0.60;;;9.20;99.90;;;;;;5110200;28;20336;-89
2021/04/20 05:44:12;;;;;;;0.60;0.60;;;9.50;99.90;;;;;;5109889;28;20213;-88
2021/04/20 05:46:40;;;;;;;0.60;0.60;;;9.50;99.90;;;;;;5109836;28;20282;-90
2021/04/20 05:49:06;;;;;;;0.60;0.60;;;9.00;99.90;;;;;;5110148;28;20229;-89
2021/04/20 05:51:33;;;;;;;0.60;0.60;;;8.00;99.90;;;;;;5110207;28;20262;-88
2021/04/20 05:54:00;;;;;;;0.60;0.60;;;7.30;99.90;;;;;;5101641;28;20268;-89
2021/04/20 05:56:27;;;;;;;0.60;0.60;;;7.10;99.90;;;;;;5092240;28;20203;-89
2021/04/20 05:58:54;;;;;;;0.60;0.60;;;6.80;99.90;;;;;;5108933;28;20227;-89
2021/04/20 06:01:21;;;;;;;0.60;0.60;;;6.80;99.90;;;;;;5102451;28;20213;-89
2021/04/20 06:03:48;;;;;;;0.60;0.60;;;6.80;99.90;;;;;;5107293;28;20190;-89
2021/04/20 06:06:17;;;;;;;0.50;0.50;;;6.90;99.90;;;;;;5115700;28;20202;-90
2021/04/20 06:08:45;;;;;;;0.60;0.60;;;7.00;99.90;;;;;;5113744;28;20226;-90
2021/04/20 06:11:11;;;;;;;0.60;0.60;;;6.80;99.90;;;;;;5115980;28;20205;-89
2021/04/20 06:13:38;;;;;;;0.60;0.60;;;7.00;99.90;;;;;;5115612;28;20202;-88
2021/04/20 06:16:06;;;;;;;0.50;0.50;;;7.10;99.90;;;;;;5115636;28;20404;-88
2021/04/20 06:18:32;;;;;;;0.60;0.60;;;7.00;99.90;;;;;;5115459;27;20633;-88
2021/04/20 06:21:00;;;;;;;0.60;0.60;;;7.10;99.90;;;;;;5114879;28;20247;-89
2021/04/20 06:23:27;;;;;;;0.50;0.50;;;7.00;99.90;;;;;;5114365;28;20208;-89
2021/04/20 06:25:57;;;;;;;0.60;0.60;;;7.20;99.90;;;;;;5113781;28;20714;-88
2021/04/20 06:28:24;;;;;;;0.60;0.60;;;7.20;99.90;;;;;;5113539;28;20214;-88
2021/04/20 06:30:51;;;;;;;0.60;0.60;;;7.00;99.90;;;;;;5114416;28;20202;-90
2021/04/20 06:33:18;;;;;;;0.60;0.60;;;6.60;99.90;;;;;;5114343;28;20262;-89
2021/04/20 06:35:44;;;;;;;0.60;0.60;;;6.80;99.90;;;;;;5113879;28;20206;-88
2021/04/20 06:38:12;;;;;;;0.60;0.60;;;6.80;99.90;;;;;;5113346;28;20754;-85
2021/04/20 06:40:40;;;;;;;0.60;0.60;;;7.00;99.90;;;;;;5113699;27;20198;-84
2021/04/20 06:43:11;;;;;;;0.60;0.60;;;6.90;99.90;;;;;;5113405;28;20207;-85
2021/04/20 06:45:45;;;;;;;0.60;0.60;;;7.10;99.90;;;;;;5114635;28;20267;-89
2021/04/20 06:48:24;;;;;;;0.60;0.60;;;7.20;99.90;;;;;;5114316;28;20238;-88
2021/04/20 06:50:55;;;;;;;0.60;0.60;;;7.10;99.90;;;;;;5114149;28;20301;-91
2021/04/20 06:53:26;;;;;;;0.55;0.55;;;7.00;99.90;;;;;;5114879;28;20206;-85
2021/04/20 06:56:04;;;;;;;0.60;0.60;;;7.10;99.90;;;;;;5114528;28;20206;-88
2021/04/20 06:58:36;;;;;;;0.60;0.60;;;7.30;99.90;;;;;;5115339;28;20209;-88
2021/04/20 07:01:06;;;;;;;0.60;0.60;;;7.30;99.90;;;;;;5118285;28;20193;-89
2021/04/20 07:03:40;;;;;;;0.60;0.60;;;7.30;99.90;;;;;;5115418;28;20202;-85
2021/04/20 07:06:13;;;;;;;0.60;0.60;;;7.50;99.90;;;;;;5122504;28;20182;-87
2021/04/20 07:08:43;;;;;;;0.60;0.60;;;7.50;99.90;;;;;;5115150;27;20226;-86
2021/04/20 07:11:12;;;;;;;0.60;0.60;;;7.70;99.90;;;;;;5116778;28;20209;-88
2021/04/20 07:13:42;;;;;;;0.60;0.60;;;7.80;99.90;;;;;;5113679;28;20194;-85
2021/04/20 07:16:23;;;;;;;0.60;0.60;;;7.90;99.90;;;;;;5112012;28;20210;-85
2021/04/20 07:19:11;;;;;;;0.60;0.60;;;8.00;99.90;;;;;;5112619;28;20336;-84
2021/04/20 07:22:01;;;;;;;0.50;0.50;;;7.80;99.90;;;;;;5113359;28;20213;-86
2021/04/20 07:24:35;;;;;;;0.60;0.60;;;7.90;99.90;;;;;;5110109;28;20205;-86
2021/04/20 07:27:17;;;;;;;0.52;0.52;;;7.80;99.90;;;;;;5092490;28;20219;-86
2021/04/20 07:29:54;;;;;;;0.60;0.60;;;8.20;99.90;;;;;;5091953;28;20222;-87
2021/04/20 07:32:29;;;;;;;0.60;0.60;;;8.20;99.90;;;;;;5091880;28;20199;-84
2021/04/20 07:35:11;;;;;;;0.60;0.60;;;8.30;99.90;;;;;;5092209;28;20232;-83
2021/04/20 07:37:42;;;;;;;0.60;0.60;;;8.30;99.90;;;;;;5092051;28;20267;-82
2021/04/20 07:40:18;;;;;;;0.57;0.57;;;8.60;99.90;;;;;;5092060;28;20252;-83
2021/04/20 07:42:57;;;;;;;0.60;0.60;;;8.50;99.90;;;;;;5092349;28;20213;-83
2021/04/20 07:45:29;;;;;;;0.50;0.50;;;8.20;99.90;;;;;;5091794;28;20579;-83
2021/04/20 07:48:09;;;;;;;0.60;0.60;;;8.40;99.90;;;;;;5091938;28;20230;-82
2021/04/20 07:50:44;;;;;;;0.60;0.60;;;8.50;99.90;;;;;;5091441;28;20230;-83
2021/04/20 07:53:17;;;;;;;0.60;0.60;;;8.50;99.90;;;;;;5091438;28;20211;-85
2021/04/20 07:55:50;;;;;;;0.60;0.60;;;8.70;99.90;;;;;;5092162;28;20207;-85
2021/04/20 07:58:20;;;;;;;0.60;0.60;;;8.60;99.90;;;;;;5092028;28;20207;-86
2021/04/20 08:00:52;;;;;;;0.60;0.60;;;8.60;99.90;;;;;;5091604;28;20668;-85
2021/04/20 08:03:23;;;;;;;0.60;0.60;;;8.50;99.90;;;;;;5103772;28;20202;-84
2021/04/20 08:05:57;;;;;;;0.60;0.60;;;8.90;99.90;;;;;;5091895;28;20234;-85
2021/04/20 08:08:41;;;;;;;0.57;0.57;;;8.90;99.90;;;;;;5093060;28;20207;-87
2021/04/20 08:11:12;;;;;;;0.60;0.60;;;9.00;99.90;;;;;;5092052;28;20203;-87
2021/04/20 08:13:46;;;;;;;0.60;0.60;;;8.90;99.90;;;;;;5091513;28;20199;-87
2021/04/20 08:16:22;;;;;;;0.57;0.57;;;9.10;99.90;;;;;;5091464;28;20725;-87
2021/04/20 08:18:52;;;;;;;0.57;0.57;;;9.30;99.90;;;;;;5091636;28;20568;-87
2021/04/20 08:21:19;;;;;;;0.50;0.50;;;9.30;99.90;;;;;;5091706;28;20214;-86
2021/04/20 08:23:49;;;;;;;0.60;0.60;;;9.20;99.90;;;;;;5091860;28;20232;-87
2021/04/20 08:26:20;;;;;;;0.60;0.60;;;9.40;99.90;;;;;;5091039;28;20247;-86
2021/04/20 08:28:51;;;;;;;0.60;0.60;;;9.50;99.90;;;;;;5090981;28;20223;-87
2021/04/20 08:31:21;;;;;;;0.60;0.60;;;9.60;99.90;;;;;;5091899;28;20214;-87
2021/04/20 08:33:59;;;;;;;0.60;0.60;;;9.70;99.90;;;;;;5091664;28;20217;-87
2021/04/20 08:36:37;;;;;;;0.60;0.60;;;9.80;99.90;;;;;;5091979;28;20539;-87
2021/04/20 08:39:09;;;;;;;0.60;0.60;;;9.80;99.90;;;;;;5092074;28;20202;-89
2021/04/20 08:41:41;;;;;;;0.60;0.60;;;9.90;99.90;;;;;;5093733;28;20214;-86
2021/04/20 08:44:18;;;;;;;0.60;0.60;;;10.00;99.90;;;;;;5089788;28;20203;-84
2021/04/20 08:46:54;;;;;;;0.60;0.60;;;10.30;99.90;;;;;;5090637;28;20280;-85
2021/04/20 08:49:33;;;;;;;0.60;0.60;;;10.30;99.90;;;;;;5090651;28;20229;-85
2021/04/20 08:52:04;;;;;;;0.60;0.60;;;10.50;99.90;;;;;;5089326;28;20203;-85
2021/04/20 08:54:41;;;;;;;0.60;0.60;;;10.70;99.90;;;;;;5090914;28;20203;-85
2021/04/20 08:57:16;;;;;;;0.60;0.60;;;10.60;99.90;;;;;;5091004;28;20203;-85
2021/04/20 08:59:55;;;;;;;0.60;0.60;;;10.70;99.90;;;;;;5090944;28;20230;-85
2021/04/20 09:02:34;;;;;;;0.57;0.57;;;10.80;99.90;;;;;;5090839;28;20206;-85
2021/04/20 09:05:23;;;;;;;0.60;0.60;;;11.20;99.90;;;;;;5091018;28;20236;-84
2021/04/20 09:08:05;;;;;;;0.60;0.60;;;11.10;99.90;;;;;;5090765;28;20203;-85
2021/04/20 09:10:35;;;;;;;0.60;0.60;;;11.30;99.90;;;;;;5090505;28;20646;-85
2021/04/20 09:13:07;;;;;;;0.60;0.60;;;11.10;99.90;;;;;;5086512;28;20214;-84
2021/04/20 09:15:36;;;;;;;0.60;0.60;;;11.40;99.90;;;;;;5089568;28;20207;-85
2021/04/20 09:18:06;;;;;;;0.60;0.60;;;11.50;99.90;;;;;;5089707;28;20214;-84
2021/04/20 09:20:38;;;;;;;0.60;0.60;;;11.40;99.90;;;;;;5089846;28;20218;-84
2021/04/20 09:23:17;;;;;;;0.60;0.60;;;11.50;99.90;;;;;;5089871;28;20221;-84
2021/04/20 09:25:51;;;;;;;0.60;0.60;;;11.70;99.90;;;;;;5089058;28;20223;-84
2021/04/20 09:28:24;;;;;;;0.60;0.60;;;11.50;99.90;;;;;;5088800;28;20750;-85
2021/04/20 09:30:54;;;;;;;0.60;0.60;;;11.60;99.90;;;;;;5088970;28;20203;-85
2021/04/20 09:33:22;;;;;;;0.60;0.60;;;11.80;99.90;;;;;;5088542;28;20214;-85
2021/04/20 09:35:49;;;;;;;0.60;0.60;;;12.00;99.90;;;;;;5087173;28;20289;-85
2021/04/20 09:38:17;;;;;;;0.60;0.60;;;12.10;99.90;;;;;;5088403;28;20588;-84
2021/04/20 09:40:47;;;;;;;0.60;0.60;;;12.10;99.90;;;;;;5088718;28;20207;-84
2021/04/20 09:43:27;;;;;;;0.60;0.60;;;12.30;99.90;;;;;;5088665;28;20412;-85
2021/04/20 09:46:00;;;;;;;0.50;0.50;;;12.30;99.90;;;;;;5088612;28;20948;-85
2021/04/20 09:48:31;;;;;;;0.60;0.60;;;12.50;99.90;;;;;;5088467;28;20287;-84
2021/04/20 09:51:05;;;;;;;0.60;0.60;;;12.50;99.90;;;;;;5088552;28;20767;-84
2021/04/20 09:53:53;;;;;;;0.60;0.60;;;12.70;99.90;;;;;;5088483;28;20256;-84
2021/04/20 09:56:22;;;;;;;0.60;0.60;;;12.80;99.90;;;;;;5088271;28;20222;-84
2021/04/20 09:58:49;;;;;;;0.57;0.57;;;12.80;99.90;;;;;;5088406;28;20252;-85
2021/04/20 10:01:47;;;;;;;0.60;0.60;;;12.90;99.90;;;;;;5088485;28;20202;-84
2021/04/20 10:04:25;;;;;;;0.50;0.50;;;12.80;99.90;;;;;;5088629;28;20206;-84
2021/04/20 10:07:06;;;;;;;0.50;0.50;;;13.00;99.90;;;;;;5088660;28;20203;-84
2021/04/20 10:09:42;;;;;;;0.60;0.60;;;13.10;99.90;;;;;;5088327;28;20268;-84
2021/04/20 10:12:23;;;;;;;0.60;0.60;;;13.30;99.90;;;;;;5088443;28;20207;-85
2021/04/20 10:14:59;;;;;;;0.60;0.60;;;13.30;99.90;;;;;;5088620;28;20257;-83
2021/04/20 10:17:32;;;;;;;0.60;0.60;;;13.40;99.90;;;;;;5088472;28;20210;-84
2021/04/20 10:20:08;;;;;;;0.60;0.60;;;13.70;99.90;;;;;;5087470;28;20206;-83
2021/04/20 10:22:44;;;;;;;0.60;0.60;;;13.80;99.90;;;;;;5088928;28;20210;-82
2021/04/20 10:25:19;;;;;;;0.60;0.60;;;13.80;99.90;;;;;;5088768;28;20622;-82
2021/04/20 10:27:51;;;;;;;0.60;0.60;;;13.90;99.90;;;;;;5084998;28;20255;-82
2021/04/20 10:30:20;;;;;;;0.60;0.60;;;14.00;99.90;;;;;;5088168;28;20222;-81
2021/04/20 10:32:50;;;;;;;0.52;0.52;;;13.80;99.90;;;;;;5091157;28;20203;-81
2021/04/20 10:35:20;;;;;;;0.60;0.60;;;14.00;99.90;;;;;;5090018;28;20214;-82
2021/04/20 10:37:51;;;;;;;0.60;0.60;;;14.10;99.90;;;;;;5088544;28;20863;-82
2021/04/20 10:40:22;;;;;;;0.60;0.60;;;14.10;99.90;;;;;;5088818;28;20248;-82
2021/04/20 10:42:49;;;;;;;0.60;0.60;;;14.00;99.90;;;;;;5089121;28;20210;-82
2021/04/20 10:45:17;;;;;;;0.60;0.60;;;14.40;99.90;;;;;;5088672;28;20229;-82
2021/04/20 10:47:49;;;;;;;0.60;0.60;;;14.30;99.90;;;;;;5088711;28;20238;-83
2021/04/20 10:50:20;;;;;;;0.60;0.60;;;14.30;99.90;;;;;;5089535;28;20697;-82
2021/04/20 10:52:46;;;;;;;0.60;0.60;;;14.40;99.90;;;;;;5092423;28;20210;-82
2021/04/20 10:55:16;;;;;;;0.60;0.60;;;14.50;99.90;;;;;;5092617;28;20661;-82
2021/04/20 10:57:47;;;;;;;0.60;0.60;;;14.60;99.90;;;;;;5092355;28;20680;-82
2021/04/20 11:00:16;;;;;;;0.60;0.60;;;14.50;99.90;;;;;;5092299;28;20225;-83
2021/04/20 11:02:47;;;;;;;0.60;0.60;;;14.80;99.90;;;;;;5092332;28;20260;-82
2021/04/20 11:05:17;;;;;;;0.60;0.60;;;14.50;99.90;;;;;;5092519;28;20203;-82
2021/04/20 11:07:44;;;;;;;0.60;0.60;;;14.60;99.90;;;;;;5091995;28;20302;-85
2021/04/20 11:10:14;;;;;;;0.60;0.60;;;14.80;99.90;;;;;;5090508;28;20587;-82
2021/04/20 11:12:41;;;;;;;0.60;0.60;;;;;;;;;;5092020;28;20207;-81
2021/04/20 11:15:10;;;;;;;0.60;0.60;;;14.80;99.90;;;;;;5092885;28;20724;-82
2021/04/20 11:17:47;;;;;;;0.60;0.60;;;15.50;99.90;;;;;;5092946;28;20203;-82
2021/04/20 11:20:17;;;;;;;0.60;0.60;;;15.30;99.90;;;;;;5093027;28;20203;-82
2021/04/20 11:22:49;;;;;;;0.50;0.50;;;15.50;99.90;;;;;;5092672;28;20203;-82
2021/04/20 11:25:24;;;;;;;0.60;0.60;;;15.70;99.90;;;;;;5092549;28;20229;-82
2021/04/20 11:27:56;;;;;;;0.60;0.60;;;15.30;99.90;;;;;;5092420;28;20209;-82
2021/04/20 11:30:29;;;;;;;0.60;0.60;;;15.40;99.90;;;;;;5092331;28;20230;-81
2021/04/20 11:32:58;;;;;;;0.60;0.60;;;15.50;99.90;;;;;;5092176;28;20601;-82
2021/04/20 11:35:27;;;;;;;0.60;0.60;;;15.50;99.90;;;;;;5091961;28;20210;-83
2021/04/20 11:37:59;;;;;;;0.60;0.60;;;15.80;99.90;;;;;;5091385;28;20214;-81
2021/04/20 11:40:30;;;;;;;0.60;0.60;;;16.00;99.90;;;;;;5091852;28;20203;-82
2021/04/20 11:43:01;;;;;;;0.60;0.60;;;16.40;99.90;;;;;;5091813;28;20620;-80
2021/04/20 11:45:29;;;;;;;0.50;0.50;;;16.70;99.90;;;;;;5091754;28;20762;-81
2021/04/20 11:48:05;;;;;;;0.60;0.60;;;16.80;99.90;;;;;;5091459;28;20234;-81
2021/04/20 11:50:34;;;;;;;0.60;0.60;;;17.20;99.90;;;;;;5091512;28;20276;-81
2021/04/20 11:53:03;;;;;;;0.60;0.60;;;17.40;99.90;;;;;;5092013;28;20293;-81
2021/04/20 11:55:32;;;;;;;0.60;0.60;;;17.30;99.90;;;;;;5091672;28;20207;-81
2021/04/20 11:58:04;;;;;;;0.60;0.60;;;17.30;99.70;;;;;;5091405;28;20207;-80
2021/04/20 12:00:32;;;;;;;0.60;0.60;;;16.90;98.90;;;;;;5087854;28;20243;-81
2021/04/20 12:03:11;;;;;;;0.60;0.60;;;16.70;98.50;;;;;;5085931;28;20210;-81
2021/04/20 12:05:39;;;;;;;0.60;0.60;;;17.00;98.80;;;;;;5086584;28;20229;-81
2021/04/20 12:08:09;;;;;;;0.57;0.57;;;17.20;99.90;;;;;;5084573;28;20199;-81
2021/04/20 12:10:36;;;;;;;0.60;0.60;;;17.30;98.10;;;;;;5086229;28;20691;-80
2021/04/20 12:13:02;;;;;;;0.60;0.60;;;16.50;97.90;;;;;;5088183;28;20206;-81
2021/04/20 12:15:31;;;;;;;0.60;0.60;;;17.10;99.90;;;;;;5084039;28;20203;-83
2021/04/20 12:17:58;;;;;;;0.60;0.60;;;17.40;97.90;;;;;;5086257;28;20218;-82
2021/04/20 12:20:26;;;;;;;0.60;0.60;;;16.90;97.60;;;;;;5089332;28;20195;-82
2021/04/20 12:22:55;;;;;;;0.60;0.60;;;17.10;98.60;;;;;;5087689;28;20206;-84
2021/04/20 12:25:22;;;;;;;0.60;0.60;;;16.50;97.20;;;;;;5084405;28;20203;-84
2021/04/20 12:27:51;;;;;;;0.60;0.60;;;16.90;98.80;;;;;;5085807;28;20623;-83
2021/04/20 12:30:19;;;;;;;0.60;0.60;;;17.10;97.60;;;;;;5091325;28;20237;-81
2021/04/20 12:32:46;;;;;;;0.60;0.60;;;16.90;98.60;;;;;;5085668;28;20259;-80
2021/04/20 12:35:13;;;;;;;0.60;0.60;;;17.00;96.90;;;;;;5086055;28;20207;-81
2021/04/20 12:37:41;;;;;;;0.60;0.60;;;17.20;97.30;;;;;;5091900;28;20226;-79
2021/04/20 12:40:10;;;;;;;0.60;0.60;;;17.70;96.10;;;;;;5094000;27;20264;-79
2021/04/20 12:42:39;;;;;;;0.60;0.60;;;16.70;95.60;;;;;;5126859;27;20205;-80
2021/04/20 12:45:09;;;;;;;0.60;0.60;;;16.70;96.50;;;;;;5117124;27;20198;-80
2021/04/20 12:47:37;;;;;;;0.60;0.60;;;17.30;97.20;;;;;;5107952;28;20226;-80
2021/04/20 12:50:07;;;;;;;0.60;0.60;;;17.50;97.50;;;;;;5106217;28;20276;-83
2021/04/20 12:52:35;;;;;;;0.60;0.60;;;17.00;96.00;;;;;;5105826;28;20217;-80
2021/04/20 12:55:06;;;;;;;0.60;0.60;;;17.30;96.70;;;;;;5103822;28;20249;-80
2021/04/20 12:57:35;;;;;;;0.60;0.60;;;17.50;98.20;;;;;;5092544;28;20228;-80
2021/04/20 13:00:09;;;;;;;0.60;0.60;;;18.10;96.50;;;;;;5095861;28;20194;-80
2021/04/20 13:02:39;;;;;;;0.60;0.60;;;17.40;95.00;;;;;;5096839;28;20217;-80
2021/04/20 13:05:07;;;;;;;0.60;0.60;;;17.40;94.70;;;;;;5099424;28;20260;-80
2021/04/20 13:07:35;;;;;;;0.60;0.60;;;17.70;93.40;;;;;;5100383;28;20203;-79